EDT,Max TemperatureF,Mean TemperatureF,Min TemperatureF,Max Dew PointF,MeanDew PointF,Min DewpointF,Max Humidity, Mean Humidity, Min Humidity, Max Sea Level PressureIn, Mean Sea Level PressureIn, Min Sea Level PressureIn, Max VisibilityMiles, Mean VisibilityMiles, Min VisibilityMiles, Max Wind SpeedMPH, Mean Wind SpeedMPH, Max Gust SpeedMPH,PrecipitationIn, CloudCover, Events, WindDirDegrees
2013-10-1,87,78,68,68,64,62,81,66,51,30.10,30.05,30.01,10,10,10,13,5,15,0.00,5,,84
2013-10-2,87,79,70,66,63,61,84,63,42,30.11,30.07,30.04,10,10,10,12,6,24,0.00,4,,82
2013-10-3,88,78,68,69,66,63,87,65,43,30.11,30.06,30.02,10,10,7,14,4,17,0.00,1,,107
2013-10-4,91,82,72,71,69,66,93,72,50,30.12,30.07,30.02,10,10,10,22,4,33,0.00,2,,107
2013-10-5,90,81,71,71,68,63,93,68,43,30.09,30.04,29.99,10,10,8,10,4,14,0.00,2,Fog,119
2013-10-6,86,79,71,73,70,68,94,79,63,30.00,29.94,29.84,10,9,1,28,5,71,T,4,Fog,131
2013-10-7,88,80,72,73,71,67,94,76,57,29.90,29.81,29.76,10,8,1,16,6,26,0.81,6,Rain-Thunderstorm,28
2013-10-8,87,76,64,68,64,57,84,68,51,30.03,29.93,29.87,10,10,10,14,7,31,0.00,3,,18
2013-10-9,74,68,62,63,60,58,93,79,64,30.13,30.08,30.02,10,10,10,13,5,17,0.00,6,,37
2013-10-10,86,72,57,61,57,51,93,64,34,30.12,30.06,30.00,10,10,10,9,1,13,0.00,0,Fog,343
2013-10-11,86,72,58,61,57,54,93,64,34,30.07,30.02,29.97,10,10,10,17,3,,0.00,1,Fog,327
2013-10-12,87,72,57,61,57,53,87,60,32,30.08,30.03,30.00,10,10,10,15,3,,0.00,3,Fog,346
2013-10-13,87,73,58,62,57,53,90,62,34,30.14,30.08,30.04,10,10,10,38,3,72,0.00,1,,8
2013-10-14,82,73,63,63,61,60,87,69,51,30.13,30.08,30.03,10,10,10,13,4,36,0.00,4,,36
2013-10-15,83,73,63,63,62,61,93,72,51,30.06,30.03,29.97,10,10,10,13,6,26,0.00,3,,32
2013-10-16,86,75,64,65,62,60,87,66,44,30.03,29.99,29.94,10,10,10,10,2,25,0.00,3,,55
2013-10-17,88,75,61,69,63,58,93,68,43,30.01,29.96,29.90,10,8,0,14,3,21,0.00,3,Fog,206
2013-10-18,86,76,66,73,68,63,93,72,51,30.00,29.95,29.92,10,10,5,15,2,17,0.06,6,Rain,301
2013-10-19,80,74,67,72,69,63,93,81,69,29.96,29.94,29.91,10,7,0,16,3,20,0.01,7,Fog-Rain,6
2013-10-20,79,72,64,65,59,55,87,69,50,30.02,29.98,29.94,10,10,10,7,3,,0.00,7,,26
2013-10-21,81,74,67,67,65,61,87,73,58,30.05,30.01,29.96,10,10,10,8,3,10,0.00,3,,28
2013-10-22,72,69,66,69,67,64,93,89,84,30.00,29.91,29.86,10,8,5,9,3,12,0.15,7,Rain,19
2013-10-23,77,64,50,64,52,37,93,59,24,30.09,29.95,29.88,10,8,0,22,8,35,0.00,1,Fog,320
2013-10-24,76,61,45,52,43,33,86,54,21,30.22,30.16,30.09,10,10,7,12,2,16,0.00,1,,346
2013-10-25,72,58,43,48,41,30,86,55,23,30.32,30.26,30.19,10,8,2,15,6,22,0.00,0,,349
2013-10-26,72,55,38,43,37,33,85,55,25,30.30,30.24,30.18,10,10,10,9,2,68,0.00,0,,12
2013-10-27,79,60,40,52,42,37,89,59,28,30.19,30.15,30.10,10,10,10,7,1,10,0.00,0,,53
2013-10-28,82,66,49,53,49,46,89,60,30,30.24,30.19,30.14,10,7,2,9,2,29,0.00,0,,105
2013-10-29,83,67,50,57,51,46,89,61,33,30.30,30.24,30.19,10,8,3,32,3,,0.00,0,,86
2013-10-30,85,69,52,58,52,46,93,61,28,30.28,30.21,30.15,10,10,10,12,3,16,0.00,0,Fog,89
2013-10-31,83,72,61,67,63,55,90,72,54,30.16,30.06,29.97,10,10,9,16,7,22,0.00,1,Fog,136